Time,TemperatureF,DewpointF,PressureIn,WindDirection,WindDirectionDegrees,WindSpeedMPH,WindSpeedGustMPH,Humidity,HourlyPrecipIn,Conditions,Clouds,dailyrainin,SoftwareType,DateUTC
2013-08-20 00:00:00,72.3,66.5,18.70,SE,146,3.6,5.4,82,0.00,,,0.00,VWS V14.00,2013-08-20 05:00:00,
2013-08-20 00:01:00,72.3,66.5,18.70,SE,137,5.4,6.7,82,0.00,,,0.00,VWS V14.00,2013-08-20 05:01:00,
2013-08-20 00:02:00,72.3,66.5,18.70,SSE,157,3.1,5.4,82,0.00,,,0.00,VWS V14.00,2013-08-20 05:02:00,
2013-08-20 00:03:00,72.1,66.3,18.70,South,170,2.7,5.4,82,0.00,,,0.00,VWS V14.00,2013-08-20 05:03:00,
2013-08-20 00:04:00,72.1,66.3,18.70,ESE,110,3.1,6.3,82,0.00,,,0.00,VWS V14.00,2013-08-20 05:04:00,
2013-08-20 00:05:00,72.1,66.3,18.70,SE,127,2.7,3.1,82,0.00,,,0.00,VWS V14.00,2013-08-20 05:05:00,
2013-08-20 00:06:00,72.1,66.3,18.70,SSE,154,2.7,3.6,82,0.00,,,0.00,VWS V14.00,2013-08-20 05:06:00,
2013-08-20 00:07:00,72.1,66.3,18.70,ESE,119,3.1,3.6,82,0.00,,,0.00,VWS V14.00,2013-08-20 05:07:00,
2013-08-20 00:08:00,72.1,66.3,18.70,SSE,168,2.7,3.6,82,0.00,,,0.00,VWS V14.00,2013-08-20 05:08:00,
2013-08-20 00:09:00,72.0,66.2,18.70,SSE,147,2.2,4.0,82,0.00,,,0.00,VWS V14.00,2013-08-20 05:09:00,
2013-08-20 00:10:00,72.0,66.2,18.70,SSE,155,2.7,2.7,82,0.00,,,0.00,VWS V14.00,2013-08-20 05:10:00,
2013-08-20 00:11:00,72.0,66.2,18.70,ESE,122,5.4,5.4,82,0.00,,,0.00,VWS V14.00,2013-08-20 05:11:00,
2013-08-20 00:12:00,72.0,66.2,18.70,SE,137,3.6,5.8,82,0.00,,,0.00,VWS V14.00,2013-08-20 05:12:00,
2013-08-20 00:13:00,72.0,66.2,18.70,East,97,4.0,4.0,82,0.00,,,0.00,VWS V14.00,2013-08-20 05:13:00,
2013-08-20 00:14:00,72.0,66.2,18.70,East,101,4.5,6.3,82,0.00,,,0.00,VWS V14.00,2013-08-20 05:14:00,
2013-08-20 00:15:00,72.0,66.2,18.70,ESE,105,5.4,6.7,82,0.00,,,0.00,VWS V14.00,2013-08-20 05:15:00,
2013-08-20 00:16:00,72.0,66.2,18.70,ESE,114,2.7,5.4,82,0.00,,,0.00,VWS V14.00,2013-08-20 05:16:00,
2013-08-20 00:17:00,72.0,66.2,18.70,ESE,108,2.2,5.4,82,0.00,,,0.00,VWS V14.00,2013-08-20 05:17:00,
2013-08-20 00:18:00,71.8,65.6,18.70,ESE,112,3.1,3.1,81,0.00,,,0.00,VWS V14.00,2013-08-20 05:18:00,
2013-08-20 00:19:00,71.8,65.6,18.70,ESE,115,3.6,5.4,81,0.00,,,0.00,VWS V14.00,2013-08-20 05:19:00,
2013-08-20 00:20:00,72.0,65.8,18.70,ESE,123,4.9,4.9,81,0.00,,,0.00,VWS V14.00,2013-08-20 05:20:00,
2013-08-20 00:21:00,72.0,65.8,18.70,SE,142,0.0,4.9,81,0.00,,,0.00,VWS V14.00,2013-08-20 05:21:00,
2013-08-20 00:22:00,72.0,65.8,18.70,SSE,161,4.9,4.9,81,0.00,,,0.00,VWS V14.00,2013-08-20 05:22:00,
2013-08-20 00:23:00,72.0,65.8,18.70,SE,143,4.9,4.9,81,0.00,,,0.00,VWS V14.00,2013-08-20 05:23:00,
2013-08-20 00:24:00,72.0,65.8,18.70,ESE,102,2.7,4.9,81,0.00,,,0.00,VWS V14.00,2013-08-20 05:24:00,
2013-08-20 00:25:00,72.0,65.8,18.70,ESE,109,4.0,4.0,81,0.00,,,0.00,VWS V14.00,2013-08-20 05:25:00,
2013-08-20 00:26:00,72.0,65.8,18.70,SE,146,2.7,4.0,81,0.00,,,0.00,VWS V14.00,2013-08-20 05:26:00,
2013-08-20 00:27:00,72.0,65.8,18.70,SSE,154,4.0,4.0,81,0.00,,,0.00,VWS V14.00,2013-08-20 05:27:00,
2013-08-20 00:28:00,71.8,65.6,18.70,East,99,2.7,4.0,81,0.00,,,0.00,VWS V14.00,2013-08-20 05:28:00,
2013-08-20 00:29:00,71.8,65.6,18.70,ESE,107,3.6,3.6,81,0.00,,,0.00,VWS V14.00,2013-08-20 05:29:00,
2013-08-20 00:30:00,71.8,65.6,18.70,ESE,119,5.4,5.4,81,0.00,,,0.00,VWS V14.00,2013-08-20 05:30:00,
2013-08-20 00:31:00,71.8,65.6,18.70,ESE,117,3.1,5.8,81,0.00,,,0.00,VWS V14.00,2013-08-20 05:31:00,
2013-08-20 00:32:00,71.8,65.6,18.70,ESE,120,4.0,4.0,81,0.00,,,0.00,VWS V14.00,2013-08-20 05:32:00,
2013-08-20 00:33:00,71.6,65.5,18.70,ESE,122,5.8,5.8,81,0.00,,,0.00,VWS V14.00,2013-08-20 05:33:00,
2013-08-20 00:34:00,71.6,65.5,18.70,South,174,4.0,5.8,81,0.00,,,0.00,VWS V14.00,2013-08-20 05:34:00,
2013-08-20 00:35:00,71.8,65.6,18.70,SE,125,3.1,5.8,81,0.00,,,0.00,VWS V14.00,2013-08-20 05:35:00,
2013-08-20 00:36:00,71.8,65.6,18.70,SE,129,3.1,3.6,81,0.00,,,0.00,VWS V14.00,2013-08-20 05:36:00,
2013-08-20 00:37:00,71.8,65.6,18.70,SE,142,3.6,4.9,81,0.00,,,0.00,VWS V14.00,2013-08-20 05:37:00,
2013-08-20 00:38:00,71.8,65.6,18.70,SE,141,4.0,5.4,81,0.00,,,0.00,VWS V14.00,2013-08-20 05:38:00,
2013-08-20 00:39:00,71.8,65.6,18.70,SE,141,5.4,5.4,81,0.00,,,0.00,VWS V14.00,2013-08-20 05:39:00,
2013-08-20 00:40:00,71.8,65.6,18.70,ESE,106,5.4,5.8,81,0.00,,,0.00,VWS V14.00,2013-08-20 05:40:00,
2013-08-20 00:41:00,71.6,65.5,18.70,SE,144,2.7,5.4,81,0.00,,,0.00,VWS V14.00,2013-08-20 05:41:00,
2013-08-20 00:42:00,71.6,65.5,18.70,SE,127,3.1,3.6,81,0.00,,,0.00,VWS V14.00,2013-08-20 05:42:00,
2013-08-20 00:43:00,71.6,65.5,18.70,SE,131,0.0,3.6,81,0.00,,,0.00,VWS V14.00,2013-08-20 05:43:00,
2013-08-20 00:44:00,71.4,65.3,18.70,SSE,152,4.0,4.0,81,0.00,,,0.00,VWS V14.00,2013-08-20 05:44:00,
2013-08-20 00:45:00,71.4,65.3,18.70,ESE,123,2.2,4.0,81,0.00,,,0.00,VWS V14.00,2013-08-20 05:45:00,
2013-08-20 00:46:00,71.4,65.3,18.70,SE,135,3.1,3.6,81,0.00,,,0.00,VWS V14.00,2013-08-20 05:46:00,
2013-08-20 00:47:00,71.4,65.3,18.70,SSE,152,4.9,4.9,81,0.00,,,0.00,VWS V14.00,2013-08-20 05:47:00,
2013-08-20 00:48:00,71.2,65.5,18.70,ESE,105,3.6,4.9,82,0.00,,,0.00,VWS V14.00,2013-08-20 05:48:00,
2013-08-20 00:49:00,71.2,65.5,18.70,ESE,121,3.6,5.4,82,0.00,,,0.00,VWS V14.00,2013-08-20 05:49:00,
2013-08-20 00:50:00,71.2,65.5,18.70,SE,127,0.0,4.0,82,0.00,,,0.00,VWS V14.00,2013-08-20 05:50:00,
2013-08-20 00:51:00,71.2,65.5,18.70,ESE,121,4.0,4.0,82,0.00,,,0.00,VWS V14.00,2013-08-20 05:51:00,
2013-08-20 00:52:00,71.2,65.5,18.70,SE,134,7.6,7.6,82,0.00,,,0.00,VWS V14.00,2013-08-20 05:52:00,
2013-08-20 00:53:00,71.2,65.5,18.70,SSE,165,2.7,7.6,82,0.00,,,0.00,VWS V14.00,2013-08-20 05:53:00,
2013-08-20 00:54:00,71.2,65.5,18.70,SSE,152,3.6,3.6,82,0.00,,,0.00,VWS V14.00,2013-08-20 05:54:00,
2013-08-20 00:55:00,71.2,65.5,18.70,SSE,149,0.0,3.6,82,0.00,,,0.00,VWS V14.00,2013-08-20 05:55:00,
2013-08-20 00:56:00,71.2,65.5,18.70,SSE,154,3.1,3.1,82,0.00,,,0.00,VWS V14.00,2013-08-20 05:56:00,
2013-08-20 00:57:00,71.2,65.5,18.70,East,88,5.4,5.4,82,0.00,,,0.00,VWS V14.00,2013-08-20 05:57:00,
2013-08-20 00:58:00,71.2,65.5,18.70,SSE,154,3.1,5.4,82,0.00,,,0.00,VWS V14.00,2013-08-20 05:58:00,
2013-08-20 00:59:00,71.2,65.5,18.70,SSE,150,2.7,5.4,82,0.00,,,0.00,VWS V14.00,2013-08-20 05:59:00,
2013-08-20 01:00:00,71.1,65.3,18.70,SSE,159,2.7,2.7,82,0.00,,,0.00,VWS V14.00,2013-08-20 06:00:00,
2013-08-20 01:01:00,71.1,65.6,18.70,SSE,151,3.6,4.0,83,0.00,,,0.00,VWS V14.00,2013-08-20 06:01:00,
2013-08-20 01:02:00,71.1,65.6,18.70,SE,145,3.1,4.9,83,0.00,,,0.00,VWS V14.00,2013-08-20 06:02:00,
2013-08-20 01:03:00,71.1,65.6,18.70,SE,145,3.1,3.6,83,0.00,,,0.00,VWS V14.00,2013-08-20 06:03:00,
2013-08-20 01:04:00,71.1,65.6,18.70,SE,143,3.1,3.6,83,0.00,,,0.00,VWS V14.00,2013-08-20 06:04:00,
2013-08-20 01:05:00,71.1,65.6,18.70,SSE,151,3.6,4.0,83,0.00,,,0.00,VWS V14.00,2013-08-20 06:05:00,
2013-08-20 01:06:00,70.9,65.5,18.70,SSE,165,2.7,3.6,83,0.00,,,0.00,VWS V14.00,2013-08-20 06:06:00,
2013-08-20 01:07:00,70.9,65.5,18.70,SSE,164,0.0,3.1,83,0.00,,,0.00,VWS V14.00,2013-08-20 06:07:00,
2013-08-20 01:08:00,70.9,65.5,18.70,SE,129,4.0,4.0,83,0.00,,,0.00,VWS V14.00,2013-08-20 06:08:00,
2013-08-20 01:09:00,70.9,65.5,18.70,SE,124,3.6,4.0,83,0.00,,,0.00,VWS V14.00,2013-08-20 06:09:00,
2013-08-20 01:10:00,70.9,65.5,18.70,SSE,147,3.6,4.9,83,0.00,,,0.00,VWS V14.00,2013-08-20 06:10:00,
2013-08-20 01:11:00,70.9,65.5,18.70,SSE,168,2.7,4.0,83,0.00,,,0.00,VWS V14.00,2013-08-20 06:11:00,
2013-08-20 01:12:00,70.9,65.5,18.70,SSE,147,3.1,3.1,83,0.00,,,0.00,VWS V14.00,2013-08-20 06:12:00,
2013-08-20 01:13:00,70.9,65.5,18.70,SE,139,3.1,3.6,83,0.00,,,0.00,VWS V14.00,2013-08-20 06:13:00,
2013-08-20 01:14:00,70.9,65.8,18.70,SE,139,2.7,4.0,84,0.00,,,0.00,VWS V14.00,2013-08-20 06:14:00,
2013-08-20 01:15:00,70.9,65.8,18.70,SSE,157,4.9,4.9,84,0.00,,,0.00,VWS V14.00,2013-08-20 06:15:00,
2013-08-20 01:16:00,70.9,65.8,18.70,ESE,113,4.0,4.9,84,0.00,,,0.00,VWS V14.00,2013-08-20 06:16:00,
2013-08-20 01:17:00,70.7,65.6,18.70,ESE,115,0.0,4.0,84,0.00,,,0.00,VWS V14.00,2013-08-20 06:17:00,
2013-08-20 01:18:00,70.7,65.6,18.70,ESE,115,3.1,3.1,84,0.00,,,0.00,VWS V14.00,2013-08-20 06:18:00,
2013-08-20 01:19:00,70.7,65.6,18.70,East,101,5.4,5.4,84,0.00,,,0.00,VWS V14.00,2013-08-20 06:19:00,
2013-08-20 01:20:00,70.9,65.8,18.70,East,95,5.4,5.8,84,0.00,,,0.00,VWS V14.00,2013-08-20 06:20:00,
2013-08-20 01:21:00,70.9,65.8,18.70,East,83,0.0,5.4,84,0.00,,,0.00,VWS V14.00,2013-08-20 06:21:00,
2013-08-20 01:22:00,70.9,65.8,18.70,SSE,167,3.1,3.1,84,0.00,,,0.00,VWS V14.00,2013-08-20 06:22:00,
2013-08-20 01:23:00,70.9,65.8,18.70,ESE,115,3.1,3.1,84,0.00,,,0.00,VWS V14.00,2013-08-20 06:23:00,
2013-08-20 01:24:00,70.9,65.5,18.70,SSE,160,3.6,3.6,83,0.00,,,0.00,VWS V14.00,2013-08-20 06:24:00,
2013-08-20 01:25:00,70.9,65.5,18.70,ESE,106,4.9,4.9,83,0.00,,,0.00,VWS V14.00,2013-08-20 06:25:00,
2013-08-20 01:26:00,70.9,65.5,18.70,ESE,123,2.7,4.9,83,0.00,,,0.00,VWS V14.00,2013-08-20 06:26:00,
2013-08-20 01:27:00,70.9,65.5,18.70,ESE,123,0.0,2.7,83,0.00,,,0.00,VWS V14.00,2013-08-20 06:27:00,
2013-08-20 01:28:00,70.7,65.3,18.70,SE,140,0.0,0.0,83,0.00,,,0.00,VWS V14.00,2013-08-20 06:28:00,
2013-08-20 01:29:00,70.7,65.3,18.70,SE,129,4.0,4.0,83,0.00,,,0.00,VWS V14.00,2013-08-20 06:29:00,
2013-08-20 01:30:00,70.7,65.3,18.70,ESE,109,3.1,5.4,83,0.00,,,0.00,VWS V14.00,2013-08-20 06:30:00,
2013-08-20 01:31:00,70.7,65.3,18.70,SE,139,2.7,3.1,83,0.00,,,0.00,VWS V14.00,2013-08-20 06:31:00,
2013-08-20 01:32:00,70.7,65.3,18.70,South,173,2.7,2.7,83,0.00,,,0.00,VWS V14.00,2013-08-20 06:32:00,
2013-08-20 01:33:00,70.7,65.3,18.70,South,173,3.1,3.1,83,0.00,,,0.00,VWS V14.00,2013-08-20 06:33:00,
2013-08-20 01:34:00,70.7,65.3,18.70,ESE,107,3.6,4.0,83,0.00,,,0.00,VWS V14.00,2013-08-20 06:34:00,
2013-08-20 01:35:00,70.7,65.3,18.70,SSE,162,3.1,3.6,83,0.00,,,0.00,VWS V14.00,2013-08-20 06:35:00,
2013-08-20 01:36:00,70.7,65.3,18.70,East,90,3.6,3.6,83,0.00,,,0.00,VWS V14.00,2013-08-20 06:36:00,
2013-08-20 01:37:00,70.7,65.3,18.70,ESE,119,3.6,3.6,83,0.00,,,0.00,VWS V14.00,2013-08-20 06:37:00,
2013-08-20 01:38:00,70.5,65.1,18.70,ESE,119,0.0,3.6,83,0.00,,,0.00,VWS V14.00,2013-08-20 06:38:00,
2013-08-20 01:39:00,70.5,65.1,18.70,SSE,162,3.1,3.1,83,0.00,,,0.00,VWS V14.00,2013-08-20 06:39:00,
2013-08-20 01:40:00,70.5,65.1,18.70,ESE,121,2.2,3.1,83,0.00,,,0.00,VWS V14.00,2013-08-20 06:40:00,
2013-08-20 01:41:00,70.3,65.3,18.70,ESE,121,0.0,2.2,84,0.00,,,0.00,VWS V14.00,2013-08-20 06:41:00,
2013-08-20 01:42:00,70.3,65.3,18.70,SSE,164,0.0,4.0,84,0.00,,,0.00,VWS V14.00,2013-08-20 06:42:00,
2013-08-20 01:43:00,70.3,65.3,18.70,SSE,164,3.6,3.6,84,0.00,,,0.00,VWS V14.00,2013-08-20 06:43:00,
2013-08-20 01:44:00,70.3,65.3,18.70,SE,125,4.0,4.0,84,0.00,,,0.00,VWS V14.00,2013-08-20 06:44:00,
2013-08-20 01:45:00,70.3,65.3,18.70,SE,146,2.7,4.0,84,0.00,,,0.00,VWS V14.00,2013-08-20 06:45:00,
2013-08-20 01:46:00,70.3,65.3,18.70,SE,130,3.6,3.6,84,0.00,,,0.00,VWS V14.00,2013-08-20 06:46:00,
2013-08-20 01:47:00,70.3,65.3,18.70,SE,142,2.2,3.6,84,0.00,,,0.00,VWS V14.00,2013-08-20 06:47:00,
2013-08-20 01:48:00,70.2,65.1,18.70,SE,142,3.6,3.6,84,0.00,,,0.00,VWS V14.00,2013-08-20 06:48:00,
2013-08-20 01:49:00,70.2,65.1,18.70,SE,142,3.1,3.6,84,0.00,,,0.00,VWS V14.00,2013-08-20 06:49:00,
2013-08-20 01:50:00,70.2,65.1,18.70,SE,146,0.0,3.1,84,0.00,,,0.00,VWS V14.00,2013-08-20 06:50:00,
2013-08-20 01:51:00,70.2,65.4,18.70,SSE,147,0.0,3.6,85,0.00,,,0.00,VWS V14.00,2013-08-20 06:51:00,
2013-08-20 01:52:00,70.2,65.4,18.70,SSE,147,0.0,0.0,85,0.00,,,0.00,VWS V14.00,2013-08-20 06:52:00,
2013-08-20 01:53:00,70.2,65.4,18.70,SSE,147,2.2,2.7,85,0.00,,,0.00,VWS V14.00,2013-08-20 06:53:00,
2013-08-20 01:54:00,70.2,65.4,18.70,SSE,147,2.2,2.7,85,0.00,,,0.00,VWS V14.00,2013-08-20 06:54:00,
2013-08-20 01:55:00,70.2,65.4,18.70,SE,142,3.1,3.6,85,0.00,,,0.00,VWS V14.00,2013-08-20 06:55:00,
2013-08-20 01:56:00,70.2,65.4,18.70,SE,143,2.2,3.1,85,0.00,,,0.00,VWS V14.00,2013-08-20 06:56:00,
2013-08-20 01:57:00,70.0,65.3,18.70,SE,142,2.7,4.0,85,0.00,,,0.00,VWS V14.00,2013-08-20 06:57:00,
2013-08-20 01:58:00,70.0,65.3,18.70,SE,142,3.1,3.1,85,0.00,,,0.00,VWS V14.00,2013-08-20 06:58:00,
2013-08-20 01:59:00,70.0,65.3,18.70,SE,142,0.0,3.1,85,0.00,,,0.00,VWS V14.00,2013-08-20 06:59:00,
2013-08-20 02:00:00,70.0,65.3,18.70,ESE,110,4.9,5.8,85,0.00,,,0.00,VWS V14.00,2013-08-20 07:00:00,
2013-08-20 02:01:00,70.0,65.3,18.70,ESE,110,3.1,4.9,85,0.00,,,0.00,VWS V14.00,2013-08-20 07:01:00,
2013-08-20 02:02:00,70.0,65.3,18.70,ESE,110,0.0,3.1,85,0.00,,,0.00,VWS V14.00,2013-08-20 07:02:00,
2013-08-20 02:03:00,70.0,65.3,18.70,SE,138,0.0,3.1,85,0.00,,,0.00,VWS V14.00,2013-08-20 07:03:00,
2013-08-20 02:04:00,70.0,65.3,18.70,ESE,104,0.0,0.0,85,0.00,,,0.00,VWS V14.00,2013-08-20 07:04:00,
2013-08-20 02:05:00,70.0,65.3,18.70,ESE,109,0.0,0.0,85,0.00,,,0.00,VWS V14.00,2013-08-20 07:05:00,
2013-08-20 02:06:00,70.0,65.3,18.70,SSE,154,0.0,0.0,85,0.00,,,0.00,VWS V14.00,2013-08-20 07:06:00,
2013-08-20 02:07:00,70.0,65.3,18.70,SSE,154,0.0,0.0,85,0.00,,,0.00,VWS V14.00,2013-08-20 07:07:00,
2013-08-20 02:08:00,69.8,65.4,18.70,SE,135,3.1,3.1,86,0.00,,,0.00,VWS V14.00,2013-08-20 07:08:00,
2013-08-20 02:09:00,69.8,65.4,18.70,SE,136,2.2,3.6,86,0.00,,,0.00,VWS V14.00,2013-08-20 07:09:00,
2013-08-20 02:10:00,70.0,65.6,18.70,SSE,166,3.6,4.0,86,0.00,,,0.00,VWS V14.00,2013-08-20 07:10:00,
2013-08-20 02:11:00,70.0,65.6,18.70,SE,137,2.7,4.0,86,0.00,,,0.00,VWS V14.00,2013-08-20 07:11:00,
2013-08-20 02:12:00,70.0,65.6,18.70,SE,133,2.2,3.1,86,0.00,,,0.00,VWS V14.00,2013-08-20 07:12:00,
2013-08-20 02:13:00,70.0,65.6,18.70,SE,135,0.0,3.1,86,0.00,,,0.00,VWS V14.00,2013-08-20 07:13:00,
2013-08-20 02:14:00,70.0,65.6,18.70,SSE,147,3.6,3.6,86,0.00,,,0.00,VWS V14.00,2013-08-20 07:14:00,
2013-08-20 02:15:00,70.0,65.6,18.70,SSE,165,4.0,4.0,86,0.00,,,0.00,VWS V14.00,2013-08-20 07:15:00,
2013-08-20 02:16:00,69.8,65.4,18.70,SE,139,2.7,4.0,86,0.00,,,0.00,VWS V14.00,2013-08-20 07:16:00,
2013-08-20 02:17:00,69.8,65.4,18.70,SE,131,3.6,4.0,86,0.00,,,0.00,VWS V14.00,2013-08-20 07:17:00,
2013-08-20 02:18:00,69.8,65.4,18.70,SE,144,2.2,3.6,86,0.00,,,0.00,VWS V14.00,2013-08-20 07:18:00,
2013-08-20 02:19:00,69.8,65.4,18.70,SSE,158,3.1,3.6,86,0.00,,,0.00,VWS V14.00,2013-08-20 07:19:00,
2013-08-20 02:20:00,69.8,65.4,18.70,East,101,5.4,5.4,86,0.00,,,0.00,VWS V14.00,2013-08-20 07:20:00,
2013-08-20 02:21:00,69.8,65.4,18.70,SE,130,3.6,5.4,86,0.00,,,0.00,VWS V14.00,2013-08-20 07:21:00,
2013-08-20 02:22:00,69.8,65.4,18.70,SE,130,0.0,3.6,86,0.00,,,0.00,VWS V14.00,2013-08-20 07:22:00,
2013-08-20 02:23:00,70.0,65.6,18.70,SSE,152,3.1,5.4,86,0.00,,,0.00,VWS V14.00,2013-08-20 07:23:00,
2013-08-20 02:24:00,70.0,65.6,18.70,SSE,167,2.7,4.0,86,0.00,,,0.00,VWS V14.00,2013-08-20 07:24:00,
2013-08-20 02:25:00,70.0,65.6,18.70,SSE,167,2.2,3.1,86,0.00,,,0.00,VWS V14.00,2013-08-20 07:25:00,
2013-08-20 02:26:00,70.0,65.6,18.70,ESE,106,2.2,2.7,86,0.00,,,0.00,VWS V14.00,2013-08-20 07:26:00,
2013-08-20 02:27:00,70.0,65.3,18.70,SSE,153,0.0,2.2,85,0.00,,,0.00,VWS V14.00,2013-08-20 07:27:00,
2013-08-20 02:28:00,70.0,65.3,18.70,SE,143,2.2,4.9,85,0.00,,,0.00,VWS V14.00,2013-08-20 07:28:00,
2013-08-20 02:29:00,70.0,65.3,18.70,SSE,150,3.1,3.1,85,0.00,,,0.00,VWS V14.00,2013-08-20 07:29:00,
2013-08-20 02:30:00,70.0,65.3,18.70,ESE,114,4.9,4.9,85,0.00,,,0.00,VWS V14.00,2013-08-20 07:30:00,
2013-08-20 02:31:00,70.0,65.3,18.70,SSE,164,3.1,4.9,85,0.00,,,0.00,VWS V14.00,2013-08-20 07:31:00,
2013-08-20 02:32:00,70.0,65.3,18.70,SSE,164,2.7,3.1,85,0.00,,,0.00,VWS V14.00,2013-08-20 07:32:00,
2013-08-20 02:33:00,70.0,65.3,18.70,SSE,164,3.1,3.6,85,0.00,,,0.00,VWS V14.00,2013-08-20 07:33:00,
2013-08-20 02:34:00,70.0,65.3,18.70,SE,133,0.0,3.6,85,0.00,,,0.00,VWS V14.00,2013-08-20 07:34:00,
2013-08-20 02:35:00,70.0,65.3,18.70,South,174,0.0,3.6,85,0.00,,,0.00,VWS V14.00,2013-08-20 07:35:00,
2013-08-20 02:36:00,70.0,65.3,18.70,SSE,167,5.8,5.8,85,0.00,,,0.00,VWS V14.00,2013-08-20 07:36:00,
2013-08-20 02:37:00,70.0,65.3,18.70,SSE,158,5.4,6.3,85,0.00,,,0.00,VWS V14.00,2013-08-20 07:37:00,
2013-08-20 02:38:00,70.0,64.9,18.70,ESE,103,0.0,5.4,84,0.00,,,0.00,VWS V14.00,2013-08-20 07:38:00,
2013-08-20 02:39:00,69.8,64.8,18.70,SE,138,2.7,3.6,84,0.00,,,0.00,VWS V14.00,2013-08-20 07:39:00,
2013-08-20 02:40:00,69.8,64.8,18.70,South,176,2.2,3.6,84,0.00,,,0.00,VWS V14.00,2013-08-20 07:40:00,
2013-08-20 02:41:00,69.8,64.8,18.70,SE,145,3.6,4.0,84,0.00,,,0.00,VWS V14.00,2013-08-20 07:41:00,
2013-08-20 02:42:00,69.8,64.8,18.70,SSE,153,4.9,4.9,84,0.00,,,0.00,VWS V14.00,2013-08-20 07:42:00,
2013-08-20 02:43:00,69.6,64.9,18.70,South,183,3.1,5.8,85,0.00,,,0.00,VWS V14.00,2013-08-20 07:43:00,
2013-08-20 02:44:00,69.8,64.8,18.70,SSE,155,5.4,5.4,84,0.00,,,0.00,VWS V14.00,2013-08-20 07:44:00,
2013-08-20 02:45:00,69.8,64.8,18.70,South,180,2.7,5.4,84,0.00,,,0.00,VWS V14.00,2013-08-20 07:45:00,
2013-08-20 02:46:00,69.6,64.9,18.70,ENE,78,3.1,4.9,85,0.00,,,0.00,VWS V14.00,2013-08-20 07:46:00,
2013-08-20 02:47:00,69.6,64.9,18.70,SE,141,4.9,5.8,85,0.00,,,0.00,VWS V14.00,2013-08-20 07:47:00,
2013-08-20 02:48:00,69.6,64.9,18.70,SE,144,4.9,5.4,85,0.00,,,0.00,VWS V14.00,2013-08-20 07:48:00,
2013-08-20 02:49:00,69.6,64.9,18.70,South,170,2.7,5.8,85,0.00,,,0.00,VWS V14.00,2013-08-20 07:49:00,
2013-08-20 02:50:00,69.6,64.9,18.70,SSE,152,3.1,3.6,85,0.00,,,0.00,VWS V14.00,2013-08-20 07:50:00,
2013-08-20 02:51:00,69.6,64.9,18.70,SE,137,3.6,5.4,85,0.00,,,0.00,VWS V14.00,2013-08-20 07:51:00,
2013-08-20 02:52:00,69.6,64.9,18.70,SE,129,3.1,3.6,85,0.00,,,0.00,VWS V14.00,2013-08-20 07:52:00,
2013-08-20 02:53:00,69.4,64.7,18.70,SSE,162,3.1,5.4,85,0.00,,,0.00,VWS V14.00,2013-08-20 07:53:00,
2013-08-20 02:54:00,69.4,64.7,18.70,SE,143,4.0,4.0,85,0.00,,,0.00,VWS V14.00,2013-08-20 07:54:00,
2013-08-20 02:55:00,69.4,64.7,18.70,SSE,151,5.4,6.3,85,0.00,,,0.00,VWS V14.00,2013-08-20 07:55:00,
2013-08-20 02:56:00,69.6,64.9,18.70,SSE,166,3.1,5.8,85,0.00,,,0.00,VWS V14.00,2013-08-20 07:56:00,
2013-08-20 02:57:00,69.4,64.7,18.70,SSE,152,3.1,4.0,85,0.00,,,0.00,VWS V14.00,2013-08-20 07:57:00,
2013-08-20 02:58:00,69.4,64.7,18.70,SSE,153,3.1,4.9,85,0.00,,,0.00,VWS V14.00,2013-08-20 07:58:00,
2013-08-20 02:59:00,69.4,64.7,18.70,SE,143,4.0,4.0,85,0.00,,,0.00,VWS V14.00,2013-08-20 07:59:00,
2013-08-20 03:00:00,69.4,64.7,18.70,SE,143,2.7,6.3,85,0.00,,,0.00,VWS V14.00,2013-08-20 08:00:00,
2013-08-20 07:26:00,67.5,64.1,18.70,SSE,151,0.0,0.0,89,0.00,,,0.00,VWS V14.00,2013-08-20 12:26:00,
2013-08-20 07:32:00,67.6,64.3,18.70,SSE,159,2.2,3.1,89,0.00,,,0.00,VWS V14.00,2013-08-20 12:32:00,
2013-08-20 07:38:00,68.2,64.5,18.70,SE,130,3.6,4.9,88,0.00,,,0.00,VWS V14.00,2013-08-20 12:38:00,
2013-08-20 07:44:00,68.2,64.5,18.70,SSE,151,5.8,7.6,88,0.00,,,0.00,VWS V14.00,2013-08-20 12:44:00,
2013-08-20 07:49:00,68.4,64.3,18.70,South,190,3.6,3.6,87,0.00,,,0.00,VWS V14.00,2013-08-20 12:49:00,
2013-08-20 07:54:00,68.5,64.5,18.70,SE,137,5.4,5.4,87,0.00,,,0.00,VWS V14.00,2013-08-20 12:54:00,
2013-08-20 08:00:00,68.9,64.9,18.70,South,177,3.1,5.8,87,0.00,,,0.00,VWS V14.00,2013-08-20 13:00:00,
2013-08-20 08:06:00,69.3,64.9,18.70,SSE,167,3.1,10.1,86,0.00,,,0.00,VWS V14.00,2013-08-20 13:06:00,
2013-08-20 08:11:00,69.6,64.9,18.70,SSE,152,5.4,6.3,85,0.00,,,0.00,VWS V14.00,2013-08-20 13:11:00,
2013-08-20 08:17:00,69.8,64.8,18.70,SSW,211,4.0,5.8,84,0.00,,,0.00,VWS V14.00,2013-08-20 13:17:00,
2013-08-20 08:22:00,70.3,64.9,18.70,SSW,193,5.4,7.6,83,0.00,,,0.00,VWS V14.00,2013-08-20 13:22:00,
2013-08-20 08:28:00,70.5,64.8,18.70,SSE,163,6.3,8.1,82,0.00,,,0.00,VWS V14.00,2013-08-20 13:28:00,
2013-08-20 08:34:00,70.9,65.1,18.70,SSE,159,5.8,8.1,82,0.00,,,0.00,VWS V14.00,2013-08-20 13:34:00,
2013-08-20 08:39:00,71.1,64.9,18.70,SSE,148,6.3,6.3,81,0.00,,,0.00,VWS V14.00,2013-08-20 13:39:00,
2013-08-20 08:45:00,71.4,65.3,18.70,South,183,5.8,6.3,81,0.00,,,0.00,VWS V14.00,2013-08-20 13:45:00,
2013-08-20 08:51:00,71.8,65.3,18.70,South,171,6.7,8.1,80,0.00,,,0.00,VWS V14.00,2013-08-20 13:51:00,
2013-08-20 08:56:00,72.0,65.5,18.70,SSE,150,5.4,7.6,80,0.00,,,0.00,VWS V14.00,2013-08-20 13:56:00,
2013-08-20 09:01:00,72.1,65.3,18.70,South,177,5.4,8.3,79,0.00,,,0.00,VWS V14.00,2013-08-20 14:01:00,
2013-08-20 09:06:00,72.5,65.6,18.70,SSW,196,6.3,8.3,79,0.00,,,0.00,VWS V14.00,2013-08-20 14:06:00,
2013-08-20 09:12:00,72.9,65.6,18.70,South,178,5.4,6.3,78,0.00,,,0.00,VWS V14.00,2013-08-20 14:12:00,
2013-08-20 09:17:00,73.2,66.0,18.70,South,188,3.6,7.6,78,0.00,,,0.00,VWS V14.00,2013-08-20 14:17:00,
2013-08-20 09:23:00,73.8,65.7,18.70,SSE,153,6.3,6.3,76,0.00,,,0.00,VWS V14.00,2013-08-20 14:23:00,
2013-08-20 09:28:00,73.9,65.9,18.70,SSE,165,7.6,7.6,76,0.00,,,0.00,VWS V14.00,2013-08-20 14:28:00,
2013-08-20 09:33:00,74.3,65.9,18.70,South,176,2.7,8.3,75,0.00,,,0.00,VWS V14.00,2013-08-20 14:33:00,
2013-08-20 09:38:00,74.7,65.8,18.70,South,178,5.4,8.1,74,0.00,,,0.00,VWS V14.00,2013-08-20 14:38:00,
2013-08-20 09:43:00,74.8,66.0,18.70,South,189,5.4,10.1,74,0.00,,,0.00,VWS V14.00,2013-08-20 14:43:00,
2013-08-20 09:49:00,75.2,66.0,18.70,South,190,8.3,8.7,73,0.00,,,0.00,VWS V14.00,2013-08-20 14:49:00,
2013-08-20 09:54:00,75.6,65.9,18.70,South,177,5.8,6.3,72,0.00,,,0.00,VWS V14.00,2013-08-20 14:54:00,
2013-08-20 09:59:00,75.7,66.1,18.70,ESE,108,4.0,6.3,72,0.00,,,0.00,VWS V14.00,2013-08-20 14:59:00,
2013-08-20 10:05:00,76.3,65.8,18.70,SSE,166,8.1,12.8,70,0.00,,,0.00,VWS V14.00,2013-08-20 15:05:00,
2013-08-20 10:10:00,76.6,66.1,18.70,SE,145,5.4,7.6,70,0.00,,,0.00,VWS V14.00,2013-08-20 15:10:00,
2013-08-20 10:16:00,76.8,65.9,18.70,South,174,6.3,8.1,69,0.00,,,0.00,VWS V14.00,2013-08-20 15:16:00,
2013-08-20 10:21:00,77.4,66.0,18.70,South,186,11.0,11.0,68,0.00,,,0.00,VWS V14.00,2013-08-20 15:21:00,
2013-08-20 10:26:00,77.5,66.2,18.70,South,174,3.6,6.3,68,0.00,,,0.00,VWS V14.00,2013-08-20 15:26:00,
2013-08-20 10:32:00,78.1,66.7,18.70,SE,144,8.7,10.1,68,0.00,,,0.00,VWS V14.00,2013-08-20 15:32:00,
2013-08-20 10:37:00,78.3,66.4,18.70,South,184,5.8,5.8,67,0.00,,,0.00,VWS V14.00,2013-08-20 15:37:00,
2013-08-20 10:43:00,78.8,66.5,18.70,SSE,156,2.7,7.6,66,0.00,,,0.00,VWS V14.00,2013-08-20 15:43:00,
2013-08-20 10:48:00,79.2,66.8,18.70,ESE,115,6.3,8.1,66,0.00,,,0.00,VWS V14.00,2013-08-20 15:48:00,
2013-08-20 10:54:00,79.5,66.7,18.70,South,183,6.3,8.7,65,0.00,,,0.00,VWS V14.00,2013-08-20 15:54:00,
2013-08-20 10:59:00,79.5,66.3,18.70,SSW,198,3.1,5.4,64,0.00,,,0.00,VWS V14.00,2013-08-20 15:59:00,
2013-08-20 11:04:00,79.5,66.7,18.70,SE,138,6.3,6.3,65,0.00,,,0.00,VWS V14.00,2013-08-20 16:04:00,
2013-08-20 11:09:00,79.9,67.1,18.70,South,180,5.4,7.6,65,0.00,,,0.00,VWS V14.00,2013-08-20 16:09:00,
2013-08-20 11:15:00,80.4,67.6,18.70,SE,129,4.0,4.0,65,0.00,,,0.00,VWS V14.00,2013-08-20 16:15:00,
2013-08-20 11:20:00,80.8,67.5,18.70,SSW,192,5.4,5.4,64,0.00,,,0.00,VWS V14.00,2013-08-20 16:20:00,
2013-08-20 11:26:00,81.1,67.4,18.70,SSW,205,6.3,8.3,63,0.00,,,0.00,VWS V14.00,2013-08-20 16:26:00,
2013-08-20 11:31:00,81.3,67.1,18.70,SSW,196,3.1,7.6,62,0.00,,,0.00,VWS V14.00,2013-08-20 16:31:00,
2013-08-20 11:36:00,81.7,67.4,18.70,South,169,2.7,5.4,62,0.00,,,0.00,VWS V14.00,2013-08-20 16:36:00,
2013-08-20 11:41:00,81.9,67.6,18.70,South,184,8.1,8.1,62,0.00,,,0.00,VWS V14.00,2013-08-20 16:41:00,
2013-08-20 11:47:00,82.2,67.0,18.70,ESE,112,8.3,8.3,60,0.00,,,0.00,VWS V14.00,2013-08-20 16:47:00,
2013-08-20 11:53:00,82.2,67.4,18.70,SSE,168,5.4,5.8,61,0.00,,,0.00,VWS V14.00,2013-08-20 16:53:00,
2013-08-20 11:58:00,82.6,67.8,18.70,SSE,160,5.8,5.8,61,0.00,,,0.00,VWS V14.00,2013-08-20 16:58:00,
2013-08-20 12:04:00,83.3,67.5,18.70,SSE,147,5.8,8.1,59,0.00,,,0.00,VWS V14.00,2013-08-20 17:04:00,
2013-08-20 12:09:00,83.1,67.8,18.70,South,171,5.4,6.3,60,0.00,,,0.00,VWS V14.00,2013-08-20 17:09:00,
2013-08-20 12:15:00,83.5,68.2,18.70,SE,146,5.4,5.4,60,0.00,,,0.00,VWS V14.00,2013-08-20 17:15:00,
2013-08-20 12:21:00,83.8,68.0,18.70,South,169,5.4,7.6,59,0.00,,,0.00,VWS V14.00,2013-08-20 17:21:00,
2013-08-20 12:26:00,84.0,68.2,18.70,South,184,4.0,6.3,59,0.00,,,0.00,VWS V14.00,2013-08-20 17:26:00,
2013-08-20 12:31:00,83.8,68.0,18.70,SSW,200,5.4,6.3,59,0.00,,,0.00,VWS V14.00,2013-08-20 17:31:00,
2013-08-20 12:36:00,84.4,69.0,18.70,SSW,206,5.4,5.4,60,0.00,,,0.00,VWS V14.00,2013-08-20 17:36:00,
2013-08-20 12:42:00,84.6,68.7,18.70,South,174,4.9,5.8,59,0.00,,,0.00,VWS V14.00,2013-08-20 17:42:00,
2013-08-20 12:47:00,85.3,68.3,18.70,South,180,4.0,8.3,57,0.00,,,0.00,VWS V14.00,2013-08-20 17:47:00,
2013-08-20 12:53:00,85.5,69.5,18.70,South,180,6.3,6.3,59,0.00,,,0.00,VWS V14.00,2013-08-20 17:53:00,
2013-08-20 12:58:00,85.5,68.0,18.70,SE,129,5.4,8.3,56,0.00,,,0.00,VWS V14.00,2013-08-20 17:58:00,
2013-08-20 13:04:00,85.6,68.2,18.70,South,191,4.0,8.1,56,0.00,,,0.00,VWS V14.00,2013-08-20 18:04:00,
2013-08-20 13:09:00,85.8,69.3,18.70,South,178,3.6,4.0,58,0.00,,,0.00,VWS V14.00,2013-08-20 18:09:00,
2013-08-20 13:14:00,86.2,68.7,18.70,South,181,3.6,6.3,56,0.00,,,0.00,VWS V14.00,2013-08-20 18:14:00,
2013-08-20 13:19:00,86.4,68.8,18.70,SSE,166,5.4,5.8,56,0.00,,,0.00,VWS V14.00,2013-08-20 18:19:00,
2013-08-20 13:25:00,86.5,69.0,18.70,South,181,6.3,7.6,56,0.00,,,0.00,VWS V14.00,2013-08-20 18:25:00,
2013-08-20 13:31:00,86.5,68.5,18.70,SE,145,4.9,6.3,55,0.00,,,0.00,VWS V14.00,2013-08-20 18:31:00,
2013-08-20 13:36:00,86.7,69.2,18.70,SE,136,8.3,8.3,56,0.00,,,0.00,VWS V14.00,2013-08-20 18:36:00,
2013-08-20 13:42:00,87.1,69.0,18.70,SSE,156,3.6,6.7,55,0.00,,,0.00,VWS V14.00,2013-08-20 18:42:00,
2013-08-20 13:47:00,87.3,69.1,18.70,South,171,5.4,6.3,55,0.00,,,0.00,VWS V14.00,2013-08-20 18:47:00,
2013-08-20 13:52:00,87.4,69.3,18.70,SSW,194,4.9,4.9,55,0.00,,,0.00,VWS V14.00,2013-08-20 18:52:00,
2013-08-20 13:57:00,87.4,68.8,18.70,SSW,195,4.9,6.3,54,0.00,,,0.00,VWS V14.00,2013-08-20 18:57:00,
2013-08-20 14:02:00,87.8,68.6,18.70,SSE,153,4.0,10.1,53,0.00,,,0.00,VWS V14.00,2013-08-20 19:02:00,
2013-08-20 14:08:00,88.0,68.7,18.70,ESE,114,5.4,8.7,53,0.00,,,0.00,VWS V14.00,2013-08-20 19:08:00,
2013-08-20 14:14:00,88.3,69.6,18.70,SE,127,5.4,5.4,54,0.00,,,0.00,VWS V14.00,2013-08-20 19:14:00,
2013-08-20 14:19:00,88.3,68.5,18.70,SSE,160,3.6,6.3,52,0.00,,,0.00,VWS V14.00,2013-08-20 19:19:00,
2013-08-20 14:24:00,88.2,68.9,18.70,South,176,6.3,6.3,53,0.00,,,0.00,VWS V14.00,2013-08-20 19:24:00,
2013-08-20 14:30:00,88.3,67.9,18.70,SE,128,4.9,5.4,51,0.00,,,0.00,VWS V14.00,2013-08-20 19:30:00,
2013-08-20 14:35:00,88.5,69.2,18.70,SSW,202,2.2,2.7,53,0.00,,,0.00,VWS V14.00,2013-08-20 19:35:00,
2013-08-20 14:41:00,88.7,69.4,18.70,SSW,200,4.0,6.3,53,0.00,,,0.00,VWS V14.00,2013-08-20 19:41:00,
2013-08-20 14:46:00,88.9,69.6,18.70,SSW,211,2.7,3.6,53,0.00,,,0.00,VWS V14.00,2013-08-20 19:46:00,
2013-08-20 14:52:00,89.1,68.6,18.70,SSW,204,2.7,7.2,51,0.00,,,0.00,VWS V14.00,2013-08-20 19:52:00,
2013-08-20 14:57:00,88.9,67.8,18.70,South,177,3.6,6.7,50,0.00,,,0.00,VWS V14.00,2013-08-20 19:57:00,
2013-08-20 15:03:00,89.2,67.0,18.70,East,92,4.9,8.1,48,0.00,,,0.00,VWS V14.00,2013-08-20 20:03:00,
2013-08-20 15:08:00,89.4,68.9,18.70,SW,214,4.0,4.0,51,0.00,,,0.00,VWS V14.00,2013-08-20 20:08:00,
2013-08-20 15:13:00,89.4,68.9,18.70,South,169,3.1,5.8,51,0.00,,,0.00,VWS V14.00,2013-08-20 20:13:00,
2013-08-20 15:18:00,89.6,69.1,18.70,ESE,119,5.8,5.8,51,0.00,,,0.00,VWS V14.00,2013-08-20 20:18:00,
2013-08-20 15:24:00,89.8,68.7,18.70,SE,143,3.6,6.3,50,0.00,,,0.00,VWS V14.00,2013-08-20 20:24:00,
2013-08-20 15:30:00,89.6,68.5,18.70,SE,126,6.3,6.3,50,0.00,,,0.00,VWS V14.00,2013-08-20 20:30:00,
2013-08-20 15:35:00,89.8,67.5,18.70,SSE,168,8.3,8.3,48,0.00,,,0.00,VWS V14.00,2013-08-20 20:35:00,
2013-08-20 15:41:00,89.8,67.5,18.70,SE,146,3.6,8.3,48,0.00,,,0.00,VWS V14.00,2013-08-20 20:41:00,
2013-08-20 15:47:00,90.0,68.2,18.70,South,183,4.0,6.3,49,0.00,,,0.00,VWS V14.00,2013-08-20 20:47:00,
2013-08-20 15:52:00,89.8,68.1,18.70,South,181,3.1,7.6,49,0.00,,,0.00,VWS V14.00,2013-08-20 20:52:00,
2013-08-20 15:58:00,89.8,67.5,18.70,East,87,3.6,6.3,48,0.00,,,0.00,VWS V14.00,2013-08-20 20:58:00,
2013-08-20 16:03:00,90.0,68.8,18.70,SE,129,3.1,3.1,50,0.00,,,0.00,VWS V14.00,2013-08-20 21:03:00,
2013-08-20 16:09:00,90.0,68.2,18.70,SE,134,2.7,4.9,49,0.00,,,0.00,VWS V14.00,2013-08-20 21:09:00,
2013-08-20 16:14:00,90.1,69.0,18.70,ESE,118,7.6,7.6,50,0.00,,,0.00,VWS V14.00,2013-08-20 21:14:00,
2013-08-20 16:20:00,90.1,67.8,18.70,ESE,123,4.0,5.8,48,0.00,,,0.00,VWS V14.00,2013-08-20 21:20:00,
2013-08-20 16:26:00,90.0,67.7,18.70,SSE,158,5.4,7.6,48,0.00,,,0.00,VWS V14.00,2013-08-20 21:26:00,
2013-08-20 16:31:00,90.1,67.8,18.70,SE,129,5.4,7.6,48,0.00,,,0.00,VWS V14.00,2013-08-20 21:31:00,
2013-08-20 16:37:00,90.0,67.7,18.70,SSE,164,5.8,8.7,48,0.00,,,0.00,VWS V14.00,2013-08-20 21:37:00,
2013-08-20 16:43:00,90.1,65.9,18.70,SSE,152,7.6,8.3,45,0.00,,,0.00,VWS V14.00,2013-08-20 21:43:00,
2013-08-20 16:48:00,90.1,67.8,18.70,South,186,3.6,5.4,48,0.00,,,0.00,VWS V14.00,2013-08-20 21:48:00,
2013-08-20 16:53:00,90.1,66.6,18.70,East,95,6.3,7.2,46,0.00,,,0.00,VWS V14.00,2013-08-20 21:53:00,
2013-08-20 16:58:00,90.1,65.3,18.70,ESE,122,5.4,8.3,44,0.00,,,0.00,VWS V14.00,2013-08-20 21:58:00,
2013-08-20 17:04:00,90.1,64.7,18.70,SSE,158,5.8,8.3,43,0.00,,,0.00,VWS V14.00,2013-08-20 22:04:00,
2013-08-20 17:09:00,90.1,65.3,18.70,SSW,201,3.6,5.8,44,0.00,,,0.00,VWS V14.00,2013-08-20 22:09:00,
2013-08-20 17:14:00,90.1,65.9,18.70,South,175,3.6,7.6,45,0.00,,,0.00,VWS V14.00,2013-08-20 22:14:00,
2013-08-20 17:19:00,90.0,65.8,18.70,SE,135,2.7,8.3,45,0.00,,,0.00,VWS V14.00,2013-08-20 22:19:00,
2013-08-20 17:24:00,90.0,65.1,18.70,SSE,160,5.8,6.7,44,0.00,,,0.00,VWS V14.00,2013-08-20 22:24:00,
2013-08-20 17:30:00,90.0,65.1,18.70,East,99,4.0,5.8,44,0.00,,,0.00,VWS V14.00,2013-08-20 22:30:00,
2013-08-20 17:36:00,89.6,65.5,18.70,SSW,193,5.4,8.1,45,0.00,,,0.00,VWS V14.00,2013-08-20 22:36:00,
2013-08-20 17:41:00,90.0,67.7,18.70,SE,144,2.7,3.1,48,0.00,,,0.00,VWS V14.00,2013-08-20 22:41:00,
2013-08-20 17:46:00,90.0,66.4,18.70,SE,126,6.3,6.3,46,0.00,,,0.00,VWS V14.00,2013-08-20 22:46:00,
2013-08-20 17:51:00,89.8,65.6,18.70,SSE,150,5.8,5.8,45,0.00,,,0.00,VWS V14.00,2013-08-20 22:51:00,
2013-08-20 17:58:00,89.8,66.3,18.70,SSE,168,3.1,4.5,46,0.00,,,0.00,VWS V14.00,2013-08-20 22:58:00,
2013-08-20 18:04:00,89.6,66.1,18.70,ESE,109,2.2,5.8,46,0.00,,,0.00,VWS V14.00,2013-08-20 23:04:00,
2013-08-20 18:09:00,89.4,65.9,18.70,SSW,195,4.0,5.8,46,0.00,,,0.00,VWS V14.00,2013-08-20 23:09:00,
2013-08-20 18:15:00,88.7,65.9,18.70,SW,220,2.7,3.6,47,0.00,,,0.00,VWS V14.00,2013-08-20 23:15:00,
2013-08-20 18:20:00,88.3,64.9,18.70,SSE,162,2.7,4.0,46,0.00,,,0.00,VWS V14.00,2013-08-20 23:20:00,
2013-08-20 18:26:00,88.0,65.8,18.70,SSE,164,0.0,0.0,48,0.00,,,0.00,VWS V14.00,2013-08-20 23:26:00,
2013-08-20 18:31:00,87.8,65.1,18.70,East,98,3.1,4.0,47,0.00,,,0.00,VWS V14.00,2013-08-20 23:31:00,
2013-08-20 18:36:00,87.6,66.1,18.70,South,190,5.4,5.4,49,0.00,,,0.00,VWS V14.00,2013-08-20 23:36:00,
2013-08-20 18:42:00,87.6,66.7,18.70,SSE,165,4.0,4.0,50,0.00,,,0.00,VWS V14.00,2013-08-20 23:42:00,
2013-08-20 18:47:00,87.4,67.7,18.70,East,87,3.6,4.0,52,0.00,,,0.00,VWS V14.00,2013-08-20 23:47:00,
2013-08-20 18:53:00,87.1,67.3,18.70,ESE,106,3.1,4.9,52,0.00,,,0.00,VWS V14.00,2013-08-20 23:53:00,
2013-08-20 18:58:00,87.1,68.4,18.70,SSE,164,4.0,4.0,54,0.00,,,0.00,VWS V14.00,2013-08-20 23:58:00,
2013-08-20 19:03:00,86.9,68.3,18.70,SSE,162,2.7,2.7,54,0.00,,,0.00,VWS V14.00,2013-08-21 00:03:00,
2013-08-20 19:08:00,86.7,68.1,18.70,SE,136,2.2,2.2,54,0.00,,,0.00,VWS V14.00,2013-08-21 00:08:00,
2013-08-20 19:14:00,86.4,67.8,18.70,SSE,159,0.0,2.7,54,0.00,,,0.00,VWS V14.00,2013-08-21 00:14:00,
2013-08-20 19:19:00,86.0,68.0,18.70,SE,145,0.0,0.0,55,0.00,,,0.00,VWS V14.00,2013-08-21 00:19:00,
2013-08-20 19:25:00,85.5,68.0,18.70,SE,129,3.1,3.1,56,0.00,,,0.00,VWS V14.00,2013-08-21 00:25:00,
2013-08-20 19:30:00,85.1,67.7,18.70,South,179,0.0,0.0,56,0.00,,,0.00,VWS V14.00,2013-08-21 00:30:00,
2013-08-20 19:36:00,84.7,67.8,18.70,SSE,164,0.0,0.0,57,0.00,,,0.00,VWS V14.00,2013-08-21 00:36:00,
2013-08-20 19:41:00,84.2,67.8,18.70,ESE,105,0.0,0.0,58,0.00,,,0.00,VWS V14.00,2013-08-21 00:41:00,
2013-08-20 19:46:00,84.0,68.2,18.70,SE,144,0.0,0.0,59,0.00,,,0.00,VWS V14.00,2013-08-21 00:46:00,
2013-08-20 19:52:00,83.5,69.1,18.70,SE,139,0.0,0.0,62,0.00,,,0.00,VWS V14.00,2013-08-21 00:52:00,
2013-08-20 19:57:00,82.9,69.1,18.70,SE,139,0.0,0.0,63,0.00,,,0.00,VWS V14.00,2013-08-21 00:57:00,
2013-08-20 20:03:00,82.2,68.4,18.70,SE,139,0.0,0.0,63,0.00,,,0.00,VWS V14.00,2013-08-21 01:03:00,
2013-08-20 20:08:00,82.0,69.1,18.70,SSE,149,0.0,2.7,65,0.00,,,0.00,VWS V14.00,2013-08-21 01:08:00,
2013-08-20 20:14:00,81.5,68.2,18.70,ESE,112,0.0,0.0,64,0.00,,,0.00,VWS V14.00,2013-08-21 01:14:00,
2013-08-20 20:19:00,81.0,67.7,18.70,ESE,112,0.0,0.0,64,0.00,,,0.00,VWS V14.00,2013-08-21 01:19:00,
2013-08-20 20:24:00,80.4,67.6,18.70,SSE,149,0.0,0.0,65,0.00,,,0.00,VWS V14.00,2013-08-21 01:24:00,
2013-08-20 20:29:00,80.1,67.7,18.70,SSE,149,0.0,0.0,66,0.00,,,0.00,VWS V14.00,2013-08-21 01:29:00,
2013-08-20 20:34:00,79.7,67.3,18.70,SE,140,0.0,0.0,66,0.00,,,0.00,VWS V14.00,2013-08-21 01:34:00,
2013-08-20 20:39:00,79.3,67.0,18.70,SSE,155,0.0,2.7,66,0.00,,,0.00,VWS V14.00,2013-08-21 01:39:00,
2013-08-20 20:45:00,79.2,67.3,18.70,SSE,155,0.0,0.0,67,0.00,,,0.00,VWS V14.00,2013-08-21 01:45:00,
2013-08-20 20:50:00,78.8,67.4,18.70,East,96,0.0,4.0,68,0.00,,,0.00,VWS V14.00,2013-08-21 01:50:00,
2013-08-20 20:56:00,78.6,67.6,18.70,SE,142,0.0,0.0,69,0.00,,,0.00,VWS V14.00,2013-08-21 01:56:00,
2013-08-20 21:02:00,78.4,67.0,18.70,SSE,154,0.0,0.0,68,0.00,,,0.00,VWS V14.00,2013-08-21 02:02:00,
2013-08-20 21:08:00,78.3,66.8,18.70,ESE,119,0.0,2.7,68,0.00,,,0.00,VWS V14.00,2013-08-21 02:08:00,
2013-08-20 21:13:00,77.9,66.9,18.70,SE,125,0.0,0.0,69,0.00,,,0.00,VWS V14.00,2013-08-21 02:13:00,
2013-08-20 21:19:00,77.5,66.6,18.70,ESE,111,2.7,2.7,69,0.00,,,0.00,VWS V14.00,2013-08-21 02:19:00,
2013-08-20 21:24:00,77.4,66.4,18.70,East,98,0.0,2.7,69,0.00,,,0.00,VWS V14.00,2013-08-21 02:24:00,
2013-08-20 21:30:00,77.2,65.8,18.70,East,97,0.0,3.1,68,0.00,,,0.00,VWS V14.00,2013-08-21 02:30:00,
2013-08-20 21:35:00,77.0,66.1,18.70,ESE,111,0.0,0.0,69,0.00,,,0.00,VWS V14.00,2013-08-21 02:35:00,
2013-08-20 21:40:00,76.8,65.9,18.70,ESE,111,0.0,0.0,69,0.00,,,0.00,VWS V14.00,2013-08-21 02:40:00,
2013-08-20 21:45:00,76.5,66.0,18.70,ESE,112,0.0,0.0,70,0.00,,,0.00,VWS V14.00,2013-08-21 02:45:00,
2013-08-20 21:50:00,76.3,65.8,18.70,SSE,157,0.0,0.0,70,0.00,,,0.00,VWS V14.00,2013-08-21 02:50:00,
2013-08-20 21:56:00,76.1,66.0,18.70,SSE,156,0.0,0.0,71,0.00,,,0.00,VWS V14.00,2013-08-21 02:56:00,
2013-08-20 22:01:00,75.7,65.7,18.70,SSE,156,0.0,0.0,71,0.00,,,0.00,VWS V14.00,2013-08-21 03:01:00,
2013-08-20 22:06:00,75.7,65.7,18.70,ESE,116,2.2,3.1,71,0.00,,,0.00,VWS V14.00,2013-08-21 03:06:00,
2013-08-20 22:12:00,75.6,65.9,18.70,SSE,149,0.0,0.0,72,0.00,,,0.00,VWS V14.00,2013-08-21 03:12:00,
2013-08-20 22:17:00,75.4,65.7,18.70,East,84,3.6,3.6,72,0.00,,,0.00,VWS V14.00,2013-08-21 03:17:00,
2013-08-20 22:23:00,75.2,65.6,18.70,ESE,119,2.7,6.3,72,0.00,,,0.00,VWS V14.00,2013-08-21 03:23:00,
2013-08-20 22:28:00,75.4,66.1,18.70,East,101,2.7,4.0,73,0.00,,,0.00,VWS V14.00,2013-08-21 03:28:00,
2013-08-20 22:34:00,75.4,65.7,18.70,ESE,119,0.0,2.7,72,0.00,,,0.00,VWS V14.00,2013-08-21 03:34:00,
2013-08-20 22:40:00,75.4,66.1,18.70,ESE,119,4.9,4.9,73,0.00,,,0.00,VWS V14.00,2013-08-21 03:40:00,
2013-08-20 22:45:00,75.2,66.0,18.70,SSE,147,5.8,5.8,73,0.00,,,0.00,VWS V14.00,2013-08-21 03:45:00,
2013-08-20 22:50:00,75.2,66.0,18.70,SE,143,0.0,4.9,73,0.00,,,0.00,VWS V14.00,2013-08-21 03:50:00,
2013-08-20 22:55:00,75.0,65.8,18.70,ESE,113,3.1,4.0,73,0.00,,,0.00,VWS V14.00,2013-08-21 03:55:00,
2013-08-20 23:00:00,74.8,65.6,18.70,ESE,106,3.1,6.3,73,0.00,,,0.00,VWS V14.00,2013-08-21 04:00:00,
2013-08-20 23:01:00,74.8,65.6,18.70,SSE,159,2.2,4.0,73,0.00,,,0.00,VWS V14.00,2013-08-21 04:01:00,
2013-08-20 23:02:00,74.8,65.6,18.70,ESE,123,5.4,5.4,73,0.00,,,0.00,VWS V14.00,2013-08-21 04:02:00,
2013-08-20 23:04:00,74.8,65.6,18.70,ESE,116,3.1,5.8,73,0.00,,,0.00,VWS V14.00,2013-08-21 04:04:00,
2013-08-20 23:06:00,74.8,65.6,18.70,SE,132,3.1,5.8,73,0.00,,,0.00,VWS V14.00,2013-08-21 04:06:00,
2013-08-20 23:07:00,74.8,65.6,18.70,SE,127,2.7,5.4,73,0.00,,,0.00,VWS V14.00,2013-08-21 04:07:00,
2013-08-20 23:13:00,74.7,65.4,18.70,SSE,160,2.7,4.9,73,0.00,,,0.00,VWS V14.00,2013-08-21 04:13:00,
2013-08-20 23:19:00,74.8,65.2,18.70,ESE,114,0.0,2.2,72,0.00,,,0.00,VWS V14.00,2013-08-21 04:19:00,
2013-08-20 23:24:00,74.7,65.0,18.70,SSE,163,0.0,3.1,72,0.00,,,0.00,VWS V14.00,2013-08-21 04:24:00,
2013-08-20 23:30:00,74.7,65.0,18.70,East,79,3.6,3.6,72,0.00,,,0.00,VWS V14.00,2013-08-21 04:30:00,
2013-08-20 23:36:00,74.7,65.0,18.70,SE,135,6.3,6.3,72,0.00,,,0.00,VWS V14.00,2013-08-21 04:36:00,
2013-08-20 23:41:00,74.3,64.7,18.70,SSE,153,2.2,2.7,72,0.00,,,0.00,VWS V14.00,2013-08-21 04:41:00,
2013-08-20 23:47:00,74.1,64.9,18.70,East,89,4.0,4.9,73,0.00,,,0.00,VWS V14.00,2013-08-21 04:47:00,
2013-08-20 23:52:00,73.9,65.1,18.70,ESE,116,2.2,3.1,74,0.00,,,0.00,VWS V14.00,2013-08-21 04:52:00,
2013-08-20 23:58:00,73.6,64.8,18.70,ESE,117,0.0,0.0,74,0.00,,,0.00,VWS V14.00,2013-08-21 04:58:00,